Time;durP1;ratioP1;P1;durP2;ratioP2;P2;SDS_P1;SDS_P2;PMS_P1;PMS_P2;Temp;Humidity;BMP_temperature;BMP_pressure;BME280_temperature;BME280_humidity;BME280_pressure;Samples;Min_cycle;Max_cycle;Signal;HPM_P1;HPM_P2
2022/11/26 00:00:48;;;;;;;0.00;0.00;;;9.70;99.90;;;;;;5009176;28;20037;-63
2022/11/26 00:03:15;;;;;;;0.00;0.00;;;9.70;99.90;;;;;;5006126;28;20084;-64
2022/11/26 00:05:42;;;;;;;;;;;9.70;99.90;;;;;;5006689;28;20033;-64
2022/11/26 00:08:29;;;;;;;0.00;0.00;;;9.70;99.90;;;;;;5005564;28;19917;-64
2022/11/26 00:10:56;;;;;;;0.00;0.00;;;9.70;99.90;;;;;;5006279;28;20403;-64
2022/11/26 00:13:25;;;;;;;0.00;0.00;;;9.80;99.90;;;;;;5007288;28;20591;-65
2022/11/26 00:15:52;;;;;;;0.00;0.00;;;9.80;99.90;;;;;;5008282;28;20033;-64
2022/11/26 00:18:18;;;;;;;0.00;0.00;;;9.80;99.90;;;;;;5005521;28;20037;-65
2022/11/26 00:20:45;;;;;;;0.00;0.00;;;9.80;99.90;;;;;;5003915;28;20021;-64
2022/11/26 00:23:20;;;;;;;0.00;0.00;;;9.70;99.90;;;;;;5006939;28;20423;-64
2022/11/26 00:25:49;;;;;;;0.00;0.00;;;9.80;99.90;;;;;;5009597;28;21319;-65
2022/11/26 00:28:27;;;;;;;0.00;0.00;;;9.80;99.90;;;;;;5007067;28;20041;-65
2022/11/26 00:30:55;;;;;;;0.00;0.00;;;9.70;99.90;;;;;;5006209;28;20499;-63
2022/11/26 00:33:21;;;;;;;0.00;0.00;;;9.70;99.90;;;;;;5007296;28;20036;-66
2022/11/26 00:35:50;;;;;;;0.00;0.00;;;9.70;99.90;;;;;;5005372;28;20021;-64
2022/11/26 00:38:20;;;;;;;0.00;0.00;;;9.80;99.90;;;;;;5007361;28;20100;-65
2022/11/26 00:40:46;;;;;;;0.00;0.00;;;9.80;99.90;;;;;;5009141;28;20030;-64
2022/11/26 00:43:12;;;;;;;0.00;0.00;;;9.80;99.90;;;;;;5007767;28;20038;-63
2022/11/26 00:45:38;;;;;;;0.00;0.00;;;9.80;99.90;;;;;;5009065;28;20030;-65
2022/11/26 00:48:04;;;;;;;0.00;0.00;;;9.70;99.90;;;;;;5009787;28;20030;-63
2022/11/26 00:50:35;;;;;;;0.00;0.00;;;9.70;99.90;;;;;;5010013;28;20153;-64
2022/11/26 00:53:01;;;;;;;0.00;0.00;;;9.70;99.90;;;;;;5008760;28;20021;-65
2022/11/26 00:55:28;;;;;;;0.00;0.00;;;9.60;99.90;;;;;;5007947;28;21143;-65
2022/11/26 00:57:54;;;;;;;0.00;0.00;;;9.70;99.90;;;;;;5006747;28;20160;-65
2022/11/26 01:00:23;;;;;;;0.00;0.00;;;9.70;99.90;;;;;;5008234;28;20486;-65
2022/11/26 01:02:49;;;;;;;0.00;0.00;;;9.80;99.90;;;;;;5010913;28;20037;-65
2022/11/26 01:05:15;;;;;;;0.00;0.00;;;9.80;99.90;;;;;;5009786;28;20036;-65
2022/11/26 01:07:41;;;;;;;;;;;9.80;99.90;;;;;;5010434;28;20092;-65
2022/11/26 01:10:19;;;;;;;0.00;0.00;;;9.80;99.90;;;;;;5009476;28;19921;-65
2022/11/26 01:12:45;;;;;;;0.00;0.00;;;9.80;99.90;;;;;;5007784;28;20057;-63
2022/11/26 01:15:12;;;;;;;0.00;0.00;;;9.80;99.90;;;;;;5005512;28;20037;-66
2022/11/26 01:17:38;;;;;;;0.00;0.00;;;9.70;99.90;;;;;;5007897;28;20088;-63
2022/11/26 01:20:19;;;;;;;0.00;0.00;;;9.70;99.90;;;;;;5011434;28;20026;-63
2022/11/26 01:22:45;;;;;;;0.00;0.00;;;9.70;99.90;;;;;;5007431;28;20042;-67
2022/11/26 01:25:10;;;;;;;0.00;0.00;;;9.60;99.90;;;;;;5008525;28;20022;-64
2022/11/26 01:27:36;;;;;;;0.00;0.00;;;9.60;99.90;;;;;;5008915;28;20034;-66
2022/11/26 01:30:02;;;;;;;0.00;0.00;;;9.60;99.90;;;;;;5005150;28;20064;-64
2022/11/26 01:32:28;;;;;;;;;;;9.60;99.90;;;;;;5011358;28;20117;-65
2022/11/26 01:34:53;;;;;;;0.00;0.00;;;9.60;99.90;;;;;;5010868;28;20000;-64
2022/11/26 01:37:19;;;;;;;0.00;0.00;;;9.50;99.90;;;;;;5009811;28;20379;-64
2022/11/26 01:39:45;;;;;;;0.00;0.00;;;9.40;99.90;;;;;;5010910;28;20406;-66
2022/11/26 01:42:39;;;;;;;0.00;0.00;;;9.40;99.90;;;;;;5008564;28;20387;-64
2022/11/26 01:45:17;;;;;;;0.00;0.00;;;9.30;99.90;;;;;;5007908;28;20030;-65
2022/11/26 01:47:47;;;;;;;0.00;0.00;;;9.30;99.90;;;;;;5010227;28;20492;-66
2022/11/26 01:50:28;;;;;;;0.00;0.00;;;9.30;99.90;;;;;;5003457;28;20485;-65
2022/11/26 01:53:18;;;;;;;0.00;0.00;;;9.20;99.90;;;;;;5010033;28;20017;-64
2022/11/26 01:55:48;;;;;;;0.00;0.00;;;9.10;99.90;;;;;;5002958;28;20171;-65
2022/11/26 01:58:19;;;;;;;0.00;0.00;;;9.10;99.90;;;;;;5010238;28;20037;-64
2022/11/26 02:00:47;;;;;;;0.00;0.00;;;9.10;99.90;;;;;;5009864;28;20049;-65
2022/11/26 02:03:13;;;;;;;0.00;0.00;;;9.10;99.90;;;;;;5006509;28;20554;-64
2022/11/26 02:05:53;;;;;;;0.00;0.00;;;9.10;99.90;;;;;;5010298;28;20038;-65
2022/11/26 02:08:19;;;;;;;0.00;0.00;;;9.10;99.90;;;;;;5009742;28;20070;-65
2022/11/26 02:10:45;;;;;;;;;;;9.10;99.90;;;;;;5009335;28;20350;-64
2022/11/26 02:13:11;;;;;;;0.00;0.00;;;9.10;99.90;;;;;;5002834;28;19912;-65
2022/11/26 02:16:06;;;;;;;0.00;0.00;;;9.30;99.90;;;;;;5010592;28;20029;-65
2022/11/26 02:18:39;;;;;;;0.00;0.00;;;9.40;99.90;;;;;;5007957;28;20561;-66
2022/11/26 02:21:24;;;;;;;0.00;0.00;;;9.60;99.90;;;;;;5007038;28;20034;-64
2022/11/26 02:24:11;;;;;;;0.00;0.00;;;9.60;99.90;;;;;;5009210;28;20125;-64
2022/11/26 02:26:43;;;;;;;0.00;0.00;;;9.60;99.90;;;;;;5008382;28;20029;-64
2022/11/26 02:29:22;;;;;;;0.00;0.00;;;9.60;99.90;;;;;;5008150;28;20122;-64
2022/11/26 02:32:12;;;;;;;0.00;0.00;;;9.70;99.90;;;;;;5007509;28;20117;-64
2022/11/26 02:34:47;;;;;;;0.00;0.00;;;9.70;99.90;;;;;;5004892;28;20041;-64
2022/11/26 02:37:25;;;;;;;0.00;0.00;;;9.50;99.90;;;;;;5009342;28;20033;-64
2022/11/26 02:39:51;;;;;;;0.00;0.00;;;9.40;99.90;;;;;;5007313;28;20018;-64
2022/11/26 02:42:29;;;;;;;0.00;0.00;;;9.50;99.90;;;;;;5007460;28;20026;-64
2022/11/26 02:45:00;;;;;;;0.00;0.00;;;9.60;99.90;;;;;;5009764;28;20026;-63
2022/11/26 02:47:28;;;;;;;0.00;0.00;;;9.60;99.90;;;;;;5009072;28;20030;-65
2022/11/26 02:49:57;;;;;;;0.00;0.00;;;9.70;99.90;;;;;;5007099;28;20022;-64
2022/11/26 02:52:25;;;;;;;0.00;0.00;;;9.70;99.90;;;;;;5009802;28;20022;-65
2022/11/26 02:54:53;;;;;;;0.00;0.00;;;9.70;99.90;;;;;;5007648;28;20026;-64
2022/11/26 02:57:23;;;;;;;0.00;0.00;;;9.80;99.90;;;;;;5004688;28;20033;-65
2022/11/26 02:59:48;;;;;;;0.00;0.00;;;9.90;99.90;;;;;;5008614;28;20065;-64
2022/11/26 03:02:31;;;;;;;0.00;0.00;;;9.90;99.90;;;;;;5008491;28;20068;-64
2022/11/26 03:05:00;;;;;;;0.00;0.00;;;10.00;99.90;;;;;;5005704;28;20045;-64
2022/11/26 03:07:28;;;;;;;0.00;0.00;;;10.00;99.90;;;;;;5008716;28;20026;-64
2022/11/26 03:09:59;;;;;;;0.00;0.00;;;10.00;99.90;;;;;;5008547;28;20018;-64
2022/11/26 03:12:28;;;;;;;0.00;0.00;;;10.00;99.90;;;;;;5005183;28;20539;-64
2022/11/26 03:14:54;;;;;;;0.00;0.00;;;10.10;99.90;;;;;;5006899;28;20104;-64
2022/11/26 03:17:20;;;;;;;0.00;0.00;;;10.10;99.90;;;;;;5009063;28;20450;-64
2022/11/26 03:19:46;;;;;;;0.00;0.00;;;10.00;99.90;;;;;;5005592;28;20048;-66
2022/11/26 03:22:13;;;;;;;0.00;0.00;;;10.10;99.90;;;;;;5006946;28;20121;-65
2022/11/26 03:24:38;;;;;;;0.00;0.00;;;10.00;99.90;;;;;;5008789;28;20022;-64
2022/11/26 03:27:04;;;;;;;0.00;0.00;;;10.00;99.90;;;;;;5008224;28;20026;-64
2022/11/26 03:29:30;;;;;;;;;;;10.00;99.90;;;;;;5008298;28;20065;-63
2022/11/26 03:31:56;;;;;;;0.00;0.00;;;10.00;99.90;;;;;;5007981;28;20021;-64
2022/11/26 03:34:22;;;;;;;0.00;0.00;;;10.00;99.90;;;;;;5009382;28;20037;-63
2022/11/26 03:36:48;;;;;;;0.00;0.00;;;10.00;99.90;;;;;;5006801;28;20029;-64
2022/11/26 03:39:13;;;;;;;0.00;0.00;;;10.00;99.90;;;;;;5009130;28;20029;-63
2022/11/26 03:41:42;;;;;;;0.00;0.00;;;10.00;99.90;;;;;;5006556;28;20058;-64
2022/11/26 03:44:09;;;;;;;0.00;0.00;;;10.00;99.90;;;;;;5005435;28;20113;-64
2022/11/26 03:46:35;;;;;;;0.00;0.00;;;9.90;99.90;;;;;;5001795;28;20030;-66
2022/11/26 03:49:00;;;;;;;0.00;0.00;;;9.80;99.90;;;;;;5006723;28;20022;-65
2022/11/26 03:51:26;;;;;;;0.00;0.00;;;9.80;99.90;;;;;;5008475;28;20455;-63
2022/11/26 03:53:52;;;;;;;0.00;0.00;;;9.60;99.90;;;;;;5008932;28;20025;-64
2022/11/26 03:56:17;;;;;;;0.00;0.00;;;9.50;99.90;;;;;;5007567;28;20033;-64
2022/11/26 03:58:43;;;;;;;0.00;0.00;;;9.40;99.90;;;;;;5008493;28;20018;-64
2022/11/26 04:01:11;;;;;;;0.00;0.00;;;9.20;99.90;;;;;;5007956;28;20488;-64
2022/11/26 04:03:37;;;;;;;0.00;0.00;;;9.10;99.90;;;;;;5008900;28;20072;-64
2022/11/26 04:06:04;;;;;;;0.00;0.00;;;9.10;99.90;;;;;;5008642;28;20540;-64
2022/11/26 04:08:29;;;;;;;;;;;9.10;99.90;;;;;;5009079;28;20045;-65
2022/11/26 04:10:55;;;;;;;0.00;0.00;;;9.10;99.90;;;;;;5009013;28;19940;-64
2022/11/26 04:13:21;;;;;;;0.00;0.00;;;9.10;99.90;;;;;;5004940;28;20026;-65
2022/11/26 04:15:47;;;;;;;0.00;0.00;;;9.10;99.90;;;;;;5011773;28;20089;-65
2022/11/26 04:18:13;;;;;;;0.00;0.00;;;9.00;99.90;;;;;;5012049;28;20116;-64
2022/11/26 04:20:39;;;;;;;0.00;0.00;;;9.10;99.90;;;;;;5010708;28;20034;-64
2022/11/26 04:23:05;;;;;;;0.00;0.00;;;9.10;99.90;;;;;;5013059;28;20697;-65
2022/11/26 04:25:31;;;;;;;0.00;0.00;;;9.20;99.90;;;;;;5013230;28;20029;-64
2022/11/26 04:27:56;;;;;;;0.00;0.00;;;9.20;99.90;;;;;;5012642;28;20030;-64
2022/11/26 04:30:22;;;;;;;0.00;0.00;;;9.20;99.90;;;;;;5012111;28;20045;-64
2022/11/26 04:32:48;;;;;;;0.00;0.00;;;9.20;99.90;;;;;;5013197;28;20066;-65
2022/11/26 04:35:14;;;;;;;0.00;0.00;;;9.30;99.90;;;;;;5015364;28;20022;-65
2022/11/26 04:37:39;;;;;;;0.00;0.00;;;9.40;99.90;;;;;;5018244;28;20044;-65
2022/11/26 04:40:06;;;;;;;0.00;0.00;;;9.50;99.90;;;;;;5019304;28;20056;-64
2022/11/26 04:42:33;;;;;;;0.00;0.00;;;9.50;99.90;;;;;;5019064;28;20521;-64
2022/11/26 04:44:59;;;;;;;0.00;0.00;;;9.60;99.90;;;;;;5017287;28;20447;-64
2022/11/26 04:47:24;;;;;;;0.00;0.00;;;9.70;99.90;;;;;;5012571;28;20029;-64
2022/11/26 04:49:50;;;;;;;0.00;0.00;;;9.80;99.90;;;;;;5016215;28;20453;-64
2022/11/26 04:52:16;;;;;;;0.00;0.00;;;9.80;99.90;;;;;;5017184;28;20034;-65
2022/11/26 04:54:42;;;;;;;0.00;0.00;;;10.00;99.90;;;;;;5016398;28;20045;-64
2022/11/26 04:57:07;;;;;;;0.00;0.00;;;10.10;99.90;;;;;;5014500;28;20487;-65
2022/11/26 04:59:33;;;;;;;0.00;0.00;;;10.20;99.90;;;;;;5011525;28;20030;-64
2022/11/26 05:01:59;;;;;;;0.00;0.00;;;10.20;99.90;;;;;;5013054;28;20515;-65
2022/11/26 05:04:26;;;;;;;0.00;0.00;;;10.20;99.90;;;;;;5011958;28;20396;-65
2022/11/26 05:06:52;;;;;;;0.00;0.00;;;10.30;99.90;;;;;;5010398;28;20026;-64
2022/11/26 05:09:17;;;;;;;0.00;0.00;;;10.40;99.90;;;;;;5010209;28;20037;-64
2022/11/26 05:11:43;;;;;;;0.00;0.00;;;10.40;99.90;;;;;;5012489;28;20034;-64
2022/11/26 05:14:09;;;;;;;0.00;0.00;;;10.40;99.90;;;;;;5013137;28;20025;-64
2022/11/26 05:16:34;;;;;;;0.00;0.00;;;10.40;99.90;;;;;;5012264;28;20033;-64
2022/11/26 05:19:00;;;;;;;0.00;0.00;;;10.40;99.90;;;;;;5010808;28;20036;-65
2022/11/26 05:21:26;;;;;;;0.00;0.00;;;10.40;99.90;;;;;;5010513;28;20022;-65
2022/11/26 05:23:51;;;;;;;0.00;0.00;;;10.50;99.90;;;;;;5011317;28;20030;-64
2022/11/26 05:26:17;;;;;;;0.00;0.00;;;10.60;99.90;;;;;;5012019;28;20041;-64
2022/11/26 05:28:42;;;;;;;0.00;0.00;;;10.50;99.90;;;;;;5011026;28;20033;-64
2022/11/26 05:31:08;;;;;;;0.00;0.00;;;10.40;99.90;;;;;;5011503;28;20137;-64
2022/11/26 05:33:34;;;;;;;0.00;0.00;;;10.30;99.90;;;;;;5010894;28;20037;-64
2022/11/26 05:36:00;;;;;;;0.00;0.00;;;10.20;99.90;;;;;;5009739;28;20034;-64
2022/11/26 05:38:25;;;;;;;;;;;10.20;99.90;;;;;;5010850;28;20061;-64
2022/11/26 05:40:51;;;;;;;0.00;0.00;;;10.20;99.90;;;;;;5011723;28;19952;-65
2022/11/26 05:43:17;;;;;;;0.00;0.00;;;10.20;99.90;;;;;;5011553;28;20034;-65
2022/11/26 05:45:43;;;;;;;0.00;0.00;;;10.10;99.90;;;;;;5008159;28;20103;-64
2022/11/26 05:48:08;;;;;;;0.00;0.00;;;10.10;99.90;;;;;;5010865;28;20057;-64
2022/11/26 05:50:34;;;;;;;0.00;0.00;;;10.10;99.90;;;;;;5011020;28;20168;-64
2022/11/26 05:53:00;;;;;;;0.00;0.00;;;10.10;99.90;;;;;;5010306;28;20455;-65
2022/11/26 05:55:25;;;;;;;0.00;0.00;;;10.10;99.90;;;;;;5008368;28;20026;-64
2022/11/26 05:57:51;;;;;;;0.00;0.00;;;10.10;99.90;;;;;;5005228;28;20031;-64
2022/11/26 06:00:18;;;;;;;0.00;0.00;;;10.20;99.90;;;;;;5010729;28;20069;-64
2022/11/26 06:02:43;;;;;;;0.00;0.00;;;10.10;99.90;;;;;;5009678;28;20056;-64
2022/11/26 06:05:09;;;;;;;0.00;0.00;;;10.20;99.90;;;;;;5010988;28;20053;-64
2022/11/26 06:07:35;;;;;;;0.00;0.00;;;10.20;99.90;;;;;;5010885;28;20049;-64
2022/11/26 06:10:01;;;;;;;0.00;0.00;;;10.10;99.90;;;;;;5007878;28;20048;-64
2022/11/26 06:12:27;;;;;;;0.00;0.00;;;10.10;99.90;;;;;;5009873;28;20040;-64
2022/11/26 06:14:52;;;;;;;0.00;0.00;;;10.10;99.90;;;;;;5009349;28;20492;-65
2022/11/26 06:17:18;;;;;;;0.00;0.00;;;10.10;99.90;;;;;;5011288;28;20129;-66
2022/11/26 06:19:45;;;;;;;0.00;0.00;;;10.20;99.90;;;;;;5006539;28;20034;-64
2022/11/26 06:22:10;;;;;;;0.00;0.00;;;10.20;99.90;;;;;;5009194;28;20029;-64
2022/11/26 06:24:36;;;;;;;0.00;0.00;;;10.10;99.90;;;;;;5009946;28;20562;-64
2022/11/26 06:27:02;;;;;;;0.00;0.00;;;10.10;99.90;;;;;;5009797;28;20515;-65
2022/11/26 06:29:27;;;;;;;0.00;0.00;;;10.00;99.90;;;;;;5009349;28;20373;-65
2022/11/26 06:31:53;;;;;;;0.00;0.00;;;10.00;99.90;;;;;;5010466;28;20034;-65
2022/11/26 06:34:19;;;;;;;0.00;0.00;;;10.00;99.90;;;;;;5009689;28;20484;-64
2022/11/26 06:36:44;;;;;;;0.00;0.00;;;9.90;99.90;;;;;;5010218;28;20096;-66
2022/11/26 06:39:10;;;;;;;0.00;0.00;;;9.80;99.90;;;;;;5009349;28;20069;-64
2022/11/26 06:41:36;;;;;;;0.00;0.00;;;9.80;99.90;;;;;;5010276;28;20087;-65
2022/11/26 06:44:02;;;;;;;0.00;0.00;;;9.80;99.90;;;;;;5008820;28;20197;-65
2022/11/26 06:46:28;;;;;;;0.00;0.00;;;9.80;99.90;;;;;;5008692;28;20038;-66
2022/11/26 06:48:54;;;;;;;0.00;0.00;;;9.70;99.90;;;;;;5007043;28;20037;-65
2022/11/26 06:51:20;;;;;;;0.00;0.00;;;9.70;99.90;;;;;;5008187;28;20141;-65
2022/11/26 06:53:47;;;;;;;0.00;0.00;;;9.70;99.90;;;;;;5008099;28;20392;-65
2022/11/26 06:56:14;;;;;;;0.00;0.00;;;9.70;99.90;;;;;;5009135;28;20022;-64
2022/11/26 06:58:41;;;;;;;0.00;0.00;;;9.70;99.90;;;;;;5010068;28;20033;-64
2022/11/26 07:01:11;;;;;;;0.00;0.00;;;9.70;99.90;;;;;;5009354;28;20022;-65
2022/11/26 07:03:37;;;;;;;0.00;0.00;;;9.60;99.90;;;;;;5004859;28;20052;-65
2022/11/26 07:06:03;;;;;;;0.00;0.00;;;9.60;99.90;;;;;;5006475;28;20029;-65
2022/11/26 07:08:29;;;;;;;0.00;0.00;;;9.60;99.90;;;;;;5008265;28;20129;-64
2022/11/26 07:10:55;;;;;;;0.00;0.00;;;9.70;99.90;;;;;;5009106;28;20033;-66
2022/11/26 07:13:20;;;;;;;0.00;0.00;;;9.70;99.90;;;;;;5006590;28;20026;-65
2022/11/26 07:15:46;;;;;;;0.00;0.00;;;9.60;99.90;;;;;;5007493;28;20030;-65
2022/11/26 07:18:12;;;;;;;0.00;0.00;;;9.60;99.90;;;;;;5007707;28;20068;-65
2022/11/26 07:20:37;;;;;;;0.00;0.00;;;9.60;99.90;;;;;;5004880;28;20041;-64
2022/11/26 07:23:04;;;;;;;0.00;0.00;;;9.60;99.90;;;;;;5009299;28;20049;-65
2022/11/26 07:25:30;;;;;;;0.00;0.00;;;9.60;99.90;;;;;;5008874;28;20029;-64
2022/11/26 07:27:57;;;;;;;0.00;0.00;;;9.50;99.90;;;;;;5005329;28;20381;-64
2022/11/26 07:30:22;;;;;;;0.00;0.00;;;9.40;99.90;;;;;;4990611;28;20057;-64
2022/11/26 07:32:48;;;;;;;0.00;0.00;;;9.50;99.90;;;;;;5007631;28;20453;-64
2022/11/26 07:35:14;;;;;;;0.00;0.00;;;9.50;99.90;;;;;;5006594;28;20048;-64
2022/11/26 07:37:39;;;;;;;0.00;0.00;;;9.40;99.90;;;;;;5005451;28;20026;-65
2022/11/26 07:40:07;;;;;;;0.00;0.00;;;9.50;99.90;;;;;;5003364;28;20120;-65
2022/11/26 07:42:33;;;;;;;0.00;0.00;;;9.50;99.90;;;;;;5007857;28;20042;-65
2022/11/26 07:44:58;;;;;;;0.00;0.00;;;9.60;99.90;;;;;;5008177;28;20117;-64
2022/11/26 07:47:24;;;;;;;0.00;0.00;;;9.60;99.90;;;;;;5023454;28;20232;-64
2022/11/26 07:49:50;;;;;;;0.00;0.00;;;9.50;99.90;;;;;;5007886;28;20040;-66
2022/11/26 07:52:16;;;;;;;0.00;0.00;;;9.50;99.90;;;;;;5008135;28;20022;-64
2022/11/26 07:54:42;;;;;;;0.00;0.00;;;9.40;99.90;;;;;;5003198;28;20029;-66
2022/11/26 07:57:07;;;;;;;0.00;0.00;;;9.30;99.90;;;;;;5008109;28;20109;-65
2022/11/26 07:59:33;;;;;;;0.00;0.00;;;9.30;99.90;;;;;;5007523;28;20109;-65
2022/11/26 08:01:59;;;;;;;0.00;0.00;;;9.20;99.90;;;;;;5008137;28;20105;-65
2022/11/26 08:04:24;;;;;;;0.00;0.00;;;9.20;99.90;;;;;;5008843;28;20109;-65
2022/11/26 08:06:50;;;;;;;0.00;0.00;;;9.30;99.90;;;;;;5008054;28;20033;-64
2022/11/26 08:09:16;;;;;;;0.00;0.00;;;9.30;99.90;;;;;;5008075;28;20400;-64
2022/11/26 08:11:41;;;;;;;0.00;0.00;;;9.40;99.90;;;;;;5006125;28;20088;-63
2022/11/26 08:14:10;;;;;;;0.00;0.00;;;9.40;99.90;;;;;;5008928;28;20064;-65
2022/11/26 08:16:37;;;;;;;0.00;0.00;;;9.40;99.90;;;;;;5008167;28;20109;-64
2022/11/26 08:19:04;;;;;;;;;;;9.40;99.90;;;;;;5008433;28;20030;-65
2022/11/26 08:21:29;;;;;;;0.00;0.00;;;9.50;99.90;;;;;;5007739;28;20367;-65
2022/11/26 08:23:55;;;;;;;0.00;0.00;;;9.50;99.90;;;;;;5006427;28;20046;-65
2022/11/26 08:26:22;;;;;;;0.00;0.00;;;9.50;99.90;;;;;;5002541;28;20160;-65
2022/11/26 08:28:48;;;;;;;0.00;0.00;;;9.60;99.90;;;;;;5007938;28;20038;-65
2022/11/26 08:31:15;;;;;;;0.00;0.00;;;9.60;99.90;;;;;;5007596;28;20026;-66
2022/11/26 08:33:41;;;;;;;0.00;0.00;;;9.70;99.90;;;;;;5007375;28;20091;-64
2022/11/26 08:36:08;;;;;;;0.00;0.00;;;9.90;99.90;;;;;;5007221;28;20111;-64
2022/11/26 08:38:34;;;;;;;0.00;0.00;;;9.80;99.90;;;;;;5007595;28;20029;-63
2022/11/26 08:41:01;;;;;;;0.00;0.00;;;9.80;99.90;;;;;;5006156;28;20026;-64
2022/11/26 08:43:27;;;;;;;0.00;0.00;;;9.90;99.90;;;;;;5002598;28;20038;-65
2022/11/26 08:45:54;;;;;;;0.00;0.00;;;10.00;99.90;;;;;;5007268;28;20528;-63
2022/11/26 08:48:21;;;;;;;0.00;0.00;;;10.00;99.90;;;;;;5002998;28;20357;-65
2022/11/26 08:50:47;;;;;;;0.00;0.00;;;10.10;99.90;;;;;;5006315;28;20026;-64
2022/11/26 08:53:12;;;;;;;0.00;0.00;;;10.20;99.90;;;;;;5007226;28;20380;-65
2022/11/26 08:55:38;;;;;;;0.00;0.00;;;10.30;99.90;;;;;;5004315;28;20045;-64
2022/11/26 08:58:04;;;;;;;0.00;0.00;;;10.30;99.90;;;;;;5005525;28;20031;-64
2022/11/26 09:00:29;;;;;;;0.00;0.00;;;10.30;99.90;;;;;;5009965;28;20045;-64
2022/11/26 09:02:55;;;;;;;0.00;0.00;;;10.40;99.90;;;;;;5004224;28;20052;-64
2022/11/26 09:05:20;;;;;;;0.00;0.00;;;10.50;99.90;;;;;;5010066;28;20041;-66
2022/11/26 09:07:46;;;;;;;0.00;0.00;;;10.50;99.90;;;;;;5009580;28;20022;-64
2022/11/26 09:10:12;;;;;;;0.00;0.00;;;10.50;99.90;;;;;;5009893;28;20034;-64
2022/11/26 09:12:38;;;;;;;0.00;0.00;;;10.50;99.90;;;;;;5008995;28;20033;-66
2022/11/26 09:15:04;;;;;;;0.00;0.00;;;10.60;99.90;;;;;;5006862;28;20037;-65
2022/11/26 09:17:29;;;;;;;0.00;0.00;;;10.70;99.90;;;;;;5006481;28;20045;-64
2022/11/26 09:19:56;;;;;;;0.00;0.00;;;10.70;99.90;;;;;;5011365;28;20561;-64
2022/11/26 09:22:21;;;;;;;;;;;10.70;99.90;;;;;;5013204;28;20044;-63
2022/11/26 09:24:47;;;;;;;0.00;0.00;;;10.80;99.90;;;;;;5010300;28;20332;-65
2022/11/26 09:27:13;;;;;;;0.00;0.00;;;10.80;99.90;;;;;;5010369;28;20042;-64
2022/11/26 09:29:39;;;;;;;0.00;0.00;;;10.90;99.90;;;;;;5011226;28;20492;-64
2022/11/26 09:32:08;;;;;;;0.00;0.00;;;11.00;99.90;;;;;;5006980;28;20025;-63
2022/11/26 09:34:36;;;;;;;0.00;0.00;;;11.10;99.90;;;;;;5008455;28;20029;-65
2022/11/26 09:37:02;;;;;;;0.00;0.00;;;11.20;99.90;;;;;;5006543;28;20107;-64
2022/11/26 09:39:27;;;;;;;0.00;0.00;;;11.20;99.90;;;;;;5006822;28;20034;-64
2022/11/26 09:42:04;;;;;;;0.00;0.00;;;11.40;99.90;;;;;;5010012;28;20098;-64
2022/11/26 09:44:36;;;;;;;0.00;0.00;;;11.50;99.90;;;;;;5006300;28;20161;-65
2022/11/26 09:47:21;;;;;;;0.00;0.00;;;11.60;99.90;;;;;;5019901;28;20112;-64
2022/11/26 09:50:14;;;;;;;0.00;0.00;;;11.60;99.90;;;;;;5007967;28;20507;-64
2022/11/26 09:52:57;;;;;;;0.00;0.00;;;11.70;99.90;;;;;;5009661;28;20030;-63
2022/11/26 09:55:26;;;;;;;0.00;0.00;;;11.80;99.90;;;;;;5008321;28;20029;-65
2022/11/26 09:58:03;;;;;;;0.00;0.00;;;11.80;99.90;;;;;;5010062;28;20480;-65
2022/11/26 10:00:38;;;;;;;0.00;0.00;;;11.90;99.90;;;;;;5005547;28;20057;-65
2022/11/26 10:03:12;;;;;;;0.00;0.00;;;11.90;99.90;;;;;;5001184;28;20042;-65
2022/11/26 10:05:48;;;;;;;0.00;0.00;;;12.00;99.90;;;;;;5009499;28;20026;-65
2022/11/26 10:08:48;;;;;;;0.00;0.00;;;12.00;99.90;;;;;;5011743;28;20028;-63
2022/11/26 10:11:19;;;;;;;0.00;0.00;;;12.00;99.90;;;;;;5008753;28;20129;-65
2022/11/26 10:14:02;;;;;;;0.00;0.00;;;12.10;99.90;;;;;;5008741;28;20057;-64
2022/11/26 10:16:42;;;;;;;0.00;0.00;;;12.20;99.90;;;;;;5008660;28;20034;-65
2022/11/26 10:19:28;;;;;;;0.00;0.00;;;12.30;99.90;;;;;;5008646;28;20113;-65
2022/11/26 10:21:59;;;;;;;0.00;0.00;;;12.40;99.90;;;;;;5009641;28;20026;-64
2022/11/26 10:24:33;;;;;;;0.00;0.00;;;12.40;99.90;;;;;;5008828;28;20484;-64
2022/11/26 10:27:04;;;;;;;0.00;0.00;;;12.30;99.90;;;;;;5006115;28;20481;-63
2022/11/26 10:29:52;;;;;;;0.00;0.00;;;12.40;99.90;;;;;;5004814;28;20018;-64
2022/11/26 10:32:36;;;;;;;0.00;0.00;;;12.50;99.90;;;;;;5019314;28;20022;-65
2022/11/26 10:35:02;;;;;;;0.00;0.00;;;12.50;99.90;;;;;;5004374;28;20029;-64
2022/11/26 10:37:28;;;;;;;0.00;0.00;;;12.50;99.90;;;;;;5008582;28;20034;-65
2022/11/26 10:40:16;;;;;;;0.00;0.00;;;12.50;99.90;;;;;;5002664;28;20119;-64
2022/11/26 10:42:44;;;;;;;0.00;0.00;;;12.50;99.90;;;;;;5007313;28;20025;-65
2022/11/26 10:45:19;;;;;;;0.00;0.00;;;12.60;99.90;;;;;;5005518;28;20559;-64
2022/11/26 10:47:44;;;;;;;0.00;0.00;;;12.60;99.90;;;;;;5003957;28;21814;-63
2022/11/26 10:50:10;;;;;;;0.00;0.00;;;12.60;99.90;;;;;;5007992;28;20113;-66
2022/11/26 10:52:38;;;;;;;0.00;0.00;;;12.70;99.90;;;;;;5006485;28;20044;-65
2022/11/26 10:55:16;;;;;;;0.00;0.00;;;12.70;99.90;;;;;;5006320;28;20380;-66
2022/11/26 10:57:48;;;;;;;0.00;0.00;;;12.80;99.90;;;;;;5006642;28;20100;-65
2022/11/26 11:00:37;;;;;;;0.00;0.00;;;12.80;99.90;;;;;;5004699;28;20096;-65
2022/11/26 11:03:25;;;;;;;0.00;0.00;;;12.80;99.90;;;;;;5004802;28;20058;-65
2022/11/26 11:06:08;;;;;;;0.00;0.00;;;12.80;99.90;;;;;;5007213;28;20034;-64
2022/11/26 11:08:33;;;;;;;0.00;0.00;;;12.80;99.90;;;;;;5006389;28;20025;-66
2022/11/26 11:11:01;;;;;;;0.00;0.00;;;12.80;99.90;;;;;;5006165;28;20030;-64
2022/11/26 11:13:48;;;;;;;0.00;0.00;;;12.80;99.90;;;;;;5006375;28;20120;-65
2022/11/26 11:16:24;;;;;;;0.00;0.00;;;12.90;99.90;;;;;;5002530;28;20038;-66
2022/11/26 11:18:56;;;;;;;0.00;0.00;;;12.90;99.90;;;;;;4999908;28;20030;-65
2022/11/26 11:21:28;;;;;;;0.00;0.00;;;12.90;99.90;;;;;;5004927;28;20030;-64
2022/11/26 11:24:06;;;;;;;0.00;0.00;;;12.90;99.90;;;;;;5002806;28;20080;-64
2022/11/26 11:26:41;;;;;;;0.00;0.00;;;13.00;99.90;;;;;;5004354;28;20022;-65
2022/11/26 11:29:32;;;;;;;0.00;0.00;;;13.00;99.90;;;;;;5006485;28;20128;-65
2022/11/26 11:32:00;;;;;;;0.00;0.00;;;13.00;99.90;;;;;;5006992;28;20025;-63
2022/11/26 11:34:38;;;;;;;0.00;0.00;;;13.00;99.90;;;;;;5003713;28;20029;-65
2022/11/26 11:37:11;;;;;;;0.00;0.00;;;13.00;99.90;;;;;;5005300;28;20704;-64
2022/11/26 11:39:37;;;;;;;0.00;0.00;;;13.00;99.90;;;;;;5007511;28;20080;-64
2022/11/26 11:42:14;;;;;;;0.00;0.00;;;13.00;99.90;;;;;;5005003;28;20014;-65
2022/11/26 11:44:46;;;;;;;0.00;0.00;;;13.00;99.90;;;;;;5004197;28;20038;-65
2022/11/26 11:47:27;;;;;;;0.00;0.00;;;13.00;99.90;;;;;;5005586;28;20026;-65
2022/11/26 11:50:14;;;;;;;0.00;0.00;;;13.00;99.90;;;;;;5007456;28;20133;-65
2022/11/26 11:53:14;;;;;;;0.00;0.00;;;13.00;99.90;;;;;;5005952;28;20056;-64
2022/11/26 11:55:49;;;;;;;0.00;0.00;;;13.00;99.90;;;;;;5005684;28;20467;-66
2022/11/26 11:58:28;;;;;;;0.00;0.00;;;13.00;99.90;;;;;;5006113;28;20022;-64
2022/11/26 12:01:27;;;;;;;0.00;0.00;;;13.10;99.90;;;;;;5004047;28;20026;-64
2022/11/26 12:04:38;;;;;;;0.00;0.00;;;13.10;99.90;;;;;;5008249;28;20121;-65
2022/11/26 12:07:26;;;;;;;0.00;0.00;;;13.10;99.90;;;;;;5009015;28;20041;-64
2022/11/26 12:10:07;;;;;;;0.00;0.00;;;13.10;99.90;;;;;;5019651;28;20787;-65
2022/11/26 12:12:51;;;;;;;0.00;0.00;;;13.10;99.90;;;;;;5005842;28;20080;-65
2022/11/26 12:15:29;;;;;;;0.00;0.00;;;13.20;99.90;;;;;;5005295;28;20022;-66
2022/11/26 12:18:00;;;;;;;0.00;0.00;;;13.20;99.90;;;;;;5007940;28;20110;-64
2022/11/26 12:21:07;;;;;;;0.00;0.00;;;13.20;99.90;;;;;;5004616;28;20022;-67
2022/11/26 12:23:48;;;;;;;0.00;0.00;;;13.20;99.90;;;;;;5005508;28;20411;-65
2022/11/26 12:26:17;;;;;;;0.00;0.00;;;13.30;99.90;;;;;;5001708;28;20030;-65
2022/11/26 12:29:03;;;;;;;0.00;0.00;;;13.30;99.90;;;;;;5005421;28;20083;-67
2022/11/26 12:31:40;;;;;;;0.00;0.00;;;13.30;99.90;;;;;;5002192;28;20025;-65
2022/11/26 12:34:21;;;;;;;0.00;0.00;;;13.30;99.90;;;;;;5001825;28;20062;-65
2022/11/26 12:36:55;;;;;;;0.00;0.00;;;13.30;99.90;;;;;;5019845;28;20021;-64
2022/11/26 12:39:32;;;;;;;0.00;0.00;;;13.20;99.90;;;;;;5006459;28;20030;-65
2022/11/26 12:42:07;;;;;;;0.00;0.00;;;13.20;99.90;;;;;;5007058;28;20435;-64
2022/11/26 12:44:41;;;;;;;0.00;0.00;;;13.20;99.90;;;;;;5008816;28;20038;-65
2022/11/26 12:47:22;;;;;;;0.00;0.00;;;13.20;99.90;;;;;;5004522;28;20504;-65
2022/11/26 12:50:12;;;;;;;0.00;0.00;;;13.20;99.90;;;;;;5005439;28;20029;-65
2022/11/26 12:52:51;;;;;;;0.00;0.00;;;13.10;99.90;;;;;;5006645;28;20045;-63
2022/11/26 12:55:31;;;;;;;0.00;0.00;;;13.20;99.90;;;;;;5005312;28;20026;-64
2022/11/26 12:58:31;;;;;;;0.00;0.00;;;13.20;99.90;;;;;;5006460;28;20127;-66
2022/11/26 13:00:57;;;;;;;0.00;0.00;;;13.20;99.90;;;;;;5007399;28;20444;-65
2022/11/26 13:03:29;;;;;;;0.00;0.00;;;13.20;99.90;;;;;;5006729;28;20029;-67
2022/11/26 13:06:31;;;;;;;0.00;0.00;;;13.20;99.90;;;;;;5008984;28;20128;-64
2022/11/26 13:09:12;;;;;;;0.00;0.00;;;13.10;99.90;;;;;;5004674;28;20116;-65
2022/11/26 13:11:51;;;;;;;0.00;0.00;;;13.10;99.90;;;;;;5003309;28;20037;-65